Time;durP1;ratioP1;P1;durP2;ratioP2;P2;SDS_P1;SDS_P2;PMS_P1;PMS_P2;Temp;Humidity;BMP_temperature;BMP_pressure;BME280_temperature;BME280_humidity;BME280_pressure;Samples;Min_cycle;Max_cycle;Signal;HPM_P1;HPM_P2
2020/12/17 00:06:02;;;;;;;35.17;22.53;;;;;;;1.49;78.00;101338.33;1729375;79;21135;-96
2020/12/17 00:08:59;;;;;;;37.27;22.17;;;;;;;1.67;77.97;101342.77;1779559;78;23540;-96
2020/12/17 00:11:57;;;;;;;27.43;17.67;;;;;;;1.72;77.79;101352.02;1769917;78;21125;-96
2020/12/17 00:32:49;;;;;;;34.50;21.23;;;;;;;1.18;79.56;101352.67;1712211;78;22452;-96
2020/12/17 00:46:31;;;;;;;40.63;20.23;;;;;;;1.31;79.44;101349.11;1751356;79;24396;-93
2020/12/17 00:49:09;;;;;;;33.03;16.97;;;;;;;1.24;79.64;101355.72;1717354;82;21278;-94
2020/12/17 00:51:38;;;;;;;28.07;17.30;;;;;;;1.26;79.63;101352.55;1707180;82;21176;-92
2020/12/17 00:54:14;;;;;;;31.10;18.33;;;;;;;1.37;79.40;101343.91;1731208;82;21192;-94
2020/12/17 00:57:13;;;;;;;30.07;18.70;;;;;;;1.57;78.98;101340.42;1776579;80;28484;-94
2020/12/17 00:59:42;;;;;;;32.47;19.87;;;;;;;1.52;78.88;101335.47;1742348;81;22173;-94
2020/12/17 01:02:13;;;;;;;37.20;19.80;;;;;;;1.43;79.16;101330.38;1721876;81;21166;-94
2020/12/17 01:04:45;;;;;;;32.77;20.97;;;;;;;1.14;79.31;101283.28;1722416;83;21191;-96
2020/12/17 01:07:21;;;;;;;27.93;16.67;;;;;;;1.39;79.50;101324.12;1688282;83;21508;-95
2020/12/17 01:10:10;;;;;;;;;;;;;;;;;;;;;
2020/12/17 01:13:15;;;;;;;31.50;17.10;;;;;;;1.74;78.66;101306.75;1819030;77;23000;-96
2020/12/17 01:15:48;;;;;;;27.53;16.30;;;;;;;1.66;78.64;101308.25;1818365;78;21124;-96
2020/12/17 01:18:36;;;;;;;28.93;16.53;;;;;;;1.61;78.81;101307.72;1771578;80;21184;-96
2020/12/17 01:21:33;;;;;;;28.80;16.33;;;;;;;1.59;78.96;101303.05;1815945;76;22602;-96
2020/12/17 01:24:28;;;;;;;26.93;17.43;;;;;;;1.61;78.70;101309.04;1782215;77;21098;-96
2020/12/17 01:27:09;;;;;;;21.43;13.40;;;;;;;1.70;78.42;101309.72;1804434;78;21112;-93
2020/12/17 01:29:41;;;;;;;30.90;18.80;;;;;;;1.71;78.56;101312.70;1782310;78;21108;-96
2020/12/17 01:32:46;;;;;;;23.43;15.17;;;;;;;1.62;78.63;101310.25;1805689;78;21148;-95
2020/12/17 01:35:23;;;;;;;26.43;16.67;;;;;;;1.54;78.89;101311.23;1775173;80;21274;-96
2020/12/17 01:38:04;;;;;;;26.10;16.60;;;;;;;1.60;78.82;101321.80;1714087;81;21146;-96
2020/12/17 01:41:25;;;;;;;20.85;15.55;;;;;;;1.73;78.54;101320.86;1596704;85;21653;31
2020/12/17 02:04:15;;;;;;;24.30;14.40;;;;;;;1.87;77.77;101329.56;1656076;83;21180;-96
2020/12/17 02:07:17;;;;;;;23.20;14.13;;;;;;;1.81;77.80;101316.83;1684933;83;21440;-96
2020/12/17 02:32:38;;;;;;;20.43;14.23;;;;;;;1.94;77.56;101321.59;1705581;80;21184;-96
2020/12/17 02:40:42;;;;;;;;;;;;;;;;;;;;;
2020/12/17 02:51:47;;;;;;;23.43;13.80;;;;;;;1.97;77.73;101342.42;1691454;82;21341;-95
2020/12/17 02:59:23;;;;;;;;;;;;;;;;;;;;;
2020/12/17 03:39:05;;;;;;;;;;;;;;;;;;;;;
2020/12/17 03:42:43;;;;;;;;;;;;;;;;;;;;;
2020/12/17 03:46:07;;;;;;;20.00;14.20;;;;;;;2.46;76.59;101378.88;1688599;83;21164;-96
2020/12/17 04:00:41;;;;;;;19.30;13.57;;;;;;;2.31;77.30;101375.06;1838683;77;20283;-96
2020/12/17 04:03:24;;;;;;;23.53;13.70;;;;;;;2.26;77.31;101375.02;1744436;82;21180;-96
2020/12/17 04:05:59;;;;;;;22.00;14.37;;;;;;;2.40;77.01;101375.38;1731040;81;21134;-94
2020/12/17 04:08:27;;;;;;;26.23;17.17;;;;;;;2.56;76.65;101375.09;1696724;84;21938;-94
2020/12/17 04:10:57;;;;;;;40.93;29.33;;;;;;;2.61;76.67;101380.88;1697497;84;21152;-95
2020/12/17 04:13:25;;;;;;;37.10;29.37;;;;;;;2.59;76.76;101382.78;1703547;82;21243;-94
2020/12/17 04:15:57;;;;;;;39.63;29.43;;;;;;;2.59;76.84;101379.67;1698357;84;21176;-93
2020/12/17 04:18:25;;;;;;;36.23;24.37;;;;;;;2.60;76.79;101381.82;1700610;83;21236;-94
2020/12/17 04:20:52;;;;;;;32.73;22.53;;;;;;;2.60;76.80;101385.31;1694326;82;21639;-95
2020/12/17 04:23:25;;;;;;;28.00;18.37;;;;;;;2.67;76.59;101387.84;1678207;84;21147;-94
2020/12/17 04:25:53;;;;;;;27.00;18.73;;;;;;;2.82;76.23;101382.42;1671859;84;21116;-95
2020/12/17 04:28:20;;;;;;;27.20;17.50;;;;;;;2.85;76.07;101384.84;1709712;78;21120;-94
2020/12/17 04:30:49;;;;;;;32.20;22.57;;;;;;;2.80;76.15;101387.80;1713061;78;21136;-92
2020/12/17 04:33:25;;;;;;;25.97;17.45;;;;;;;2.72;76.19;101389.67;1694841;82;21296;-93
2020/12/17 04:35:57;;;;;;;17.33;14.53;;;;;;;2.64;76.43;101387.25;1694313;83;21044;-92
2020/12/17 04:38:28;;;;;;;17.93;13.90;;;;;;;2.61;76.60;101386.14;1707937;82;21183;-93
2020/12/17 04:41:00;;;;;;;18.13;13.90;;;;;;;2.66;76.50;101390.61;1715323;82;21163;-95
2020/12/17 04:43:30;;;;;;;22.27;15.13;;;;;;;2.80;76.26;101380.38;1692793;83;21178;-95
2020/12/17 04:46:05;;;;;;;22.50;15.60;;;;;;;2.83;76.23;101382.31;1683845;81;21155;-92
2020/12/17 04:48:36;;;;;;;21.03;15.43;;;;;;;2.77;76.31;101381.45;1719245;78;21164;-94
2020/12/17 04:51:08;;;;;;;29.23;18.40;;;;;;;2.75;76.37;101375.92;1645073;83;21132;-95
2020/12/17 04:53:37;;;;;;;23.60;17.80;;;;;;;2.71;76.48;101381.88;1716436;83;21254;-96
2020/12/17 04:56:07;;;;;;;21.63;17.00;;;;;;;2.69;76.57;101384.65;1687024;83;21353;-95
2020/12/17 04:58:36;;;;;;;25.50;18.37;;;;;;;2.76;76.47;101381.08;1708996;83;21350;-95
2020/12/17 05:01:08;;;;;;;28.40;16.67;;;;;;;2.93;76.09;101377.20;1669634;83;22246;-92
2020/12/17 05:03:39;;;;;;;22.20;17.17;;;;;;;2.96;75.96;101386.21;1688280;83;21203;-94
2020/12/17 05:06:08;;;;;;;24.80;16.57;;;;;;;2.91;76.00;101387.84;1717124;82;21084;-95
2020/12/17 05:08:37;;;;;;;25.53;18.57;;;;;;;2.87;76.16;101385.56;1694978;82;21144;-93
2020/12/17 05:11:15;;;;;;;;;;;;;;;;;;;;;
2020/12/17 05:13:46;;;;;;;24.27;15.77;;;;;;;2.85;76.18;101380.41;1795587;77;22809;-94
2020/12/17 05:16:17;;;;;;;21.83;14.90;;;;;;;2.88;76.03;101379.33;1821747;78;21104;-96
2020/12/17 05:18:48;;;;;;;18.87;14.80;;;;;;;3.04;75.64;101390.91;1732369;80;21270;-93
2020/12/17 05:21:17;;;;;;;20.37;13.43;;;;;;;3.05;75.62;101388.63;1786558;80;21474;-94
2020/12/17 05:24:14;;;;;;;19.80;14.43;;;;;;;3.03;75.71;101381.31;1794715;77;22864;-95
2020/12/17 05:26:44;;;;;;;19.60;13.77;;;;;;;2.91;75.60;101397.55;1759461;80;21313;-93
2020/12/17 05:29:18;;;;;;;18.37;14.53;;;;;;;2.83;75.74;101398.11;1706555;80;21167;-94
2020/12/17 05:31:49;;;;;;;20.20;13.97;;;;;;;2.77;75.85;101389.81;1717089;81;21167;-93
2020/12/17 05:34:35;;;;;;;22.98;14.68;;;;;;;2.81;75.85;101397.39;1698266;80;21191;-94
2020/12/17 05:37:07;;;;;;;18.00;14.80;;;;;;;2.97;75.49;101398.89;1700274;80;21147;-95
2020/12/17 05:40:03;;;;;;;20.07;14.60;;;;;;;3.03;75.45;101401.07;1841593;76;22319;-95
2020/12/17 05:42:36;;;;;;;19.27;13.90;;;;;;;2.95;75.46;101410.02;1804509;78;21172;-95
2020/12/17 05:45:25;;;;;;;22.27;16.23;;;;;;;2.90;75.56;101410.34;1794772;78;21210;-96
2020/12/17 05:48:23;;;;;;;20.37;14.63;;;;;;;2.87;75.55;101410.09;1811618;78;21145;-95
2020/12/17 05:52:35;;;;;;;;;;;;;;;;;;;;;
2020/12/17 05:55:22;;;;;;;23.30;16.37;;;;;;;2.98;75.21;101414.59;1680276;82;21707;-94
2020/12/17 05:57:53;;;;;;;23.30;16.03;;;;;;;2.99;74.88;101421.52;1704315;81;21104;-95
2020/12/17 06:00:36;;;;;;;20.77;14.60;;;;;;;2.94;74.99;101421.04;1706905;82;21151;-96
2020/12/17 06:03:21;;;;;;;22.63;15.07;;;;;;;2.90;75.23;101420.42;1711858;81;21175;-96
2020/12/17 06:06:00;;;;;;;21.07;16.27;;;;;;;2.90;75.33;101425.69;1673630;84;21204;-95
2020/12/17 06:08:39;;;;;;;22.77;16.60;;;;;;;2.89;75.34;101425.80;1671103;83;21317;-95
2020/12/17 06:11:21;;;;;;;;;;;;;;;;;;;;;
2020/12/17 06:14:04;;;;;;;25.70;16.90;;;;;;;3.21;74.48;101419.47;1816833;77;23064;-95
2020/12/17 06:16:58;;;;;;;26.07;18.70;;;;;;;3.19;74.24;101428.45;1741826;79;21125;-95
2020/12/17 06:19:34;;;;;;;25.70;20.37;;;;;;;3.11;74.32;101435.12;1728054;80;21239;-96
2020/12/17 06:22:10;;;;;;;28.17;19.57;;;;;;;3.10;74.29;101432.59;1758678;79;21136;-95
2020/12/17 06:24:51;;;;;;;25.63;19.77;;;;;;;3.09;74.23;101438.35;1712674;82;21547;-96
2020/12/17 06:27:25;;;;;;;25.13;18.37;;;;;;;3.05;74.05;101432.95;1712072;82;21135;-96
2020/12/17 06:30:09;;;;;;;26.10;19.30;;;;;;;3.08;73.95;101433.19;1718581;82;21446;-96
2020/12/17 06:32:42;;;;;;;27.80;20.80;;;;;;;3.19;73.53;101426.66;1735491;82;21251;-96
2020/12/17 06:35:53;;;;;;;29.27;21.23;;;;;;;3.18;73.37;101434.18;1713874;82;21291;-96
2020/12/17 06:52:30;;;;;;;29.47;21.97;;;;;;;2.64;74.88;101441.22;1807542;76;23064;-95
2020/12/17 06:55:48;;;;;;;32.60;22.77;;;;;;;2.69;74.80;101441.70;1760923;81;21329;-96
2020/12/17 07:09:07;;;;;;;29.90;21.00;;;;;;;2.77;75.06;101459.12;1813596;78;22693;-94
2020/12/17 07:11:56;;;;;;;34.60;21.83;;;;;;;2.74;75.02;101460.66;1775681;79;22961;-93
2020/12/17 07:14:41;;;;;;;31.40;21.33;;;;;;;2.76;74.99;101467.13;1729351;82;21092;-95
2020/12/17 07:17:28;;;;;;;29.43;20.70;;;;;;;2.89;74.66;101475.34;1736468;82;21168;-96
2020/12/17 07:20:02;;;;;;;30.30;20.40;;;;;;;3.13;73.92;101477.17;1720308;82;21171;-89
2020/12/17 07:22:40;;;;;;;35.37;23.67;;;;;;;3.19;73.36;101477.20;1712804;82;21180;-90
2020/12/17 07:25:15;;;;;;;39.07;26.77;;;;;;;3.14;73.34;101487.22;1732614;82;21184;-87
2020/12/17 07:27:48;;;;;;;39.13;28.37;;;;;;;3.10;73.27;101481.33;1671797;82;21172;-87
2020/12/17 07:30:24;;;;;;;38.17;26.60;;;;;;;3.08;73.32;101485.88;1715153;82;21595;-88
2020/12/17 07:32:58;;;;;;;36.27;24.63;;;;;;;3.07;73.35;101492.08;1731639;82;21257;-88
2020/12/17 07:35:27;;;;;;;25.20;18.10;;;;;;;3.03;73.39;101498.53;1719685;82;21093;-87
2020/12/17 07:37:58;;;;;;;26.57;18.23;;;;;;;3.09;73.00;101496.80;1700834;84;21184;-89
2020/12/17 07:40:53;;;;;;;;;;;;;;;;;;;;;
2020/12/17 07:43:41;;;;;;;26.63;19.27;;;;;;;3.33;71.96;101490.18;1827240;77;23965;-91
2020/12/17 07:46:18;;;;;;;27.90;20.87;;;;;;;3.21;71.75;101496.38;1764589;79;21116;-93
2020/12/17 07:48:57;;;;;;;25.40;18.97;;;;;;;3.10;71.98;101499.77;1710391;81;21154;-92
2020/12/17 07:51:59;;;;;;;29.47;19.50;;;;;;;3.00;72.28;101493.02;1788671;80;27843;-91
2020/12/17 07:54:27;;;;;;;24.87;19.23;;;;;;;3.02;72.25;101495.55;1761258;81;21128;-93
2020/12/17 07:57:00;;;;;;;27.50;17.67;;;;;;;3.12;72.08;101492.11;1746281;81;21310;-91
2020/12/17 07:59:28;;;;;;;25.00;20.23;;;;;;;3.14;72.18;101495.95;1754696;81;21196;-89
2020/12/17 08:02:03;;;;;;;33.03;21.87;;;;;;;3.09;72.44;101496.80;1721839;81;21147;-91
2020/12/17 08:04:34;;;;;;;26.50;19.47;;;;;;;3.08;72.60;101495.09;1740309;81;21195;-90
2020/12/17 08:07:08;;;;;;;28.53;21.20;;;;;;;3.07;72.28;101489.00;1699477;81;21076;-92
2020/12/17 08:09:41;;;;;;;27.17;20.95;;;;;;;3.06;72.49;101487.78;1707385;83;21154;-89
2020/12/17 08:12:12;;;;;;;26.67;20.43;;;;;;;3.14;72.47;101493.81;1702116;83;21196;-93
2020/12/17 08:14:51;;;;;;;;;;;;;;;;;;;;;
2020/12/17 08:17:20;;;;;;;28.03;20.93;;;;;;;3.36;71.83;101490.45;1681374;83;21137;-93
2020/12/17 08:19:58;;;;;;;26.73;19.00;;;;;;;3.37;71.78;101494.30;1701520;83;21160;-88
2020/12/17 08:22:28;;;;;;;22.87;17.45;;;;;;;3.36;71.51;101492.61;1716045;83;21972;-92
2020/12/17 08:25:17;;;;;;;22.37;17.57;;;;;;;3.37;71.40;101495.62;1659786;84;21357;-89
2020/12/17 08:27:45;;;;;;;19.00;13.73;;;;;;;3.38;71.27;101493.81;1707306;83;21187;-90
2020/12/17 08:30:14;;;;;;;18.27;14.83;;;;;;;3.37;70.68;101500.02;1706834;83;21136;-90
2020/12/17 08:32:51;;;;;;;22.87;14.90;;;;;;;3.44;70.51;101501.27;1703770;83;21171;-90
2020/12/17 08:35:25;;;;;;;20.68;15.53;;;;;;;3.45;70.19;101501.16;1675842;83;21204;-89
2020/12/17 08:37:56;;;;;;;22.27;17.23;;;;;;;3.34;70.35;101498.95;1697407;83;21327;-91
2020/12/17 08:40:25;;;;;;;24.97;17.63;;;;;;;3.21;70.78;101501.16;1696168;83;21209;-91
2020/12/17 08:43:10;;;;;;;24.73;17.10;;;;;;;3.14;71.02;101501.23;1671505;83;21220;-91
2020/12/17 08:45:40;;;;;;;24.60;17.27;;;;;;;3.09;71.23;101502.06;1699160;83;21384;-90
2020/12/17 08:48:13;;;;;;;29.27;18.63;;;;;;;3.05;71.40;101498.80;1701436;83;21149;-89
2020/12/17 08:50:40;;;;;;;25.40;18.13;;;;;;;3.18;71.37;101504.00;1704040;82;21157;-89
2020/12/17 08:53:23;;;;;;;26.43;19.47;;;;;;;3.23;71.42;101508.47;1712770;83;21142;-90
2020/12/17 08:56:12;;;;;;;27.33;17.23;;;;;;;3.20;71.35;101509.16;1705695;83;21330;-89
2020/12/17 08:59:01;;;;;;;29.83;21.63;;;;;;;3.21;71.42;101516.13;1702829;83;21310;-87
2020/12/17 09:01:38;;;;;;;28.80;22.03;;;;;;;3.25;71.38;101514.47;1819591;77;22704;-90
2020/12/17 09:04:06;;;;;;;26.80;18.97;;;;;;;3.21;71.38;101518.77;1797319;78;22271;-89
2020/12/17 09:06:33;;;;;;;32.57;20.97;;;;;;;3.22;71.30;101520.43;1779293;78;21094;-89
2020/12/17 09:09:24;;;;;;;27.10;18.27;;;;;;;3.29;71.16;101518.55;1760089;81;21175;-89
2020/12/17 09:11:52;;;;;;;23.20;17.70;;;;;;;2.99;70.67;101447.03;1755252;80;21180;-90
2020/12/17 09:14:19;;;;;;;33.90;24.57;;;;;;;3.36;70.47;101515.00;1755818;80;21160;-91
2020/12/17 09:16:48;;;;;;;25.77;19.87;;;;;;;3.29;70.88;101514.59;1721478;79;21148;-90
2020/12/17 09:19:17;;;;;;;22.37;16.67;;;;;;;3.29;70.76;101507.18;1762111;79;21170;-90
2020/12/17 09:21:57;;;;;;;26.07;18.73;;;;;;;3.29;70.85;101510.64;1764087;80;21159;-88
2020/12/17 09:24:30;;;;;;;22.73;17.43;;;;;;;3.30;70.82;101514.98;1760202;81;21180;-91
2020/12/17 09:27:36;;;;;;;24.53;16.90;;;;;;;3.34;70.76;101512.96;1798964;77;23169;-86
2020/12/17 09:30:14;;;;;;;23.83;17.60;;;;;;;3.38;70.51;101517.05;1774156;80;21197;-88
2020/12/17 09:32:55;;;;;;;;;;;;;;;3.49;70.32;101516.27;1774063;80;21209;-89
2020/12/17 09:35:31;;;;;;;28.10;19.17;;;;;;;3.50;70.22;101512.20;1768346;80;21573;-90
2020/12/17 09:38:09;;;;;;;27.05;20.08;;;;;;;3.39;70.38;101509.97;1717823;82;21203;-87
2020/12/17 09:40:37;;;;;;;25.02;17.60;;;;;;;3.36;70.55;101507.59;1719826;82;21338;-88
2020/12/17 09:43:13;;;;;;;25.30;16.70;;;;;;;3.32;70.58;101508.28;1681078;83;21197;-91
2020/12/17 09:45:44;;;;;;;23.87;18.67;;;;;;;3.25;70.61;101510.52;1694882;83;21338;-89
2020/12/17 09:48:19;;;;;;;26.73;19.53;;;;;;;3.20;71.07;101507.39;1709828;83;21203;-89
2020/12/17 09:51:04;;;;;;;27.93;19.70;;;;;;;3.27;71.00;101502.02;1696890;84;21199;-89
2020/12/17 09:53:43;;;;;;;22.10;16.73;;;;;;;3.52;70.50;101502.84;1816997;77;22751;-89
2020/12/17 09:56:16;;;;;;;27.03;19.47;;;;;;;3.48;70.36;101505.34;1811155;77;21140;-90
2020/12/17 09:58:45;;;;;;;31.80;22.73;;;;;;;3.40;70.45;101503.28;1820546;77;21179;-89
2020/12/17 10:01:14;;;;;;;26.70;20.17;;;;;;;3.38;70.71;101504.36;1818856;77;21203;-88
2020/12/17 10:03:43;;;;;;;29.87;22.47;;;;;;;3.40;70.66;101509.03;1817614;77;21171;-88
2020/12/17 10:06:29;;;;;;;33.33;24.33;;;;;;;3.43;70.62;101495.16;1730541;79;22878;-88
2020/12/17 10:08:57;;;;;;;31.43;21.87;;;;;;;3.40;70.67;101498.01;1614165;86;21216;-88
2020/12/17 10:14:09;;;;;;;33.17;23.20;;;;;;;3.62;70.21;101493.30;1811127;77;22866;-90
2020/12/17 10:16:39;;;;;;;38.77;26.43;;;;;;;3.65;70.01;101486.47;1792923;79;21180;-88
2020/12/17 10:19:13;;;;;;;52.10;31.93;;;;;;;3.65;70.01;101502.29;1793369;78;21163;-90
2020/12/17 10:21:41;;;;;;;63.90;37.63;;;;;;;3.64;70.06;101495.35;1792748;79;21146;-88
2020/12/17 10:24:14;;;;;;;70.77;41.50;;;;;;;3.63;70.05;101495.45;1792382;78;21159;-91
2020/12/17 10:27:08;;;;;;;65.62;47.95;;;;;;;3.67;70.10;101488.54;1788655;77;29671;-88
2020/12/17 10:29:37;;;;;;;51.93;32.97;;;;;;;3.85;69.78;101498.65;1756030;80;21310;-88
2020/12/17 10:32:05;;;;;;;47.53;32.97;;;;;;;4.04;69.12;101496.28;1740512;81;21152;-90
2020/12/17 10:34:34;;;;;;;55.13;37.63;;;;;;;4.02;69.09;101492.09;1744565;81;21863;-86
2020/12/17 10:37:04;;;;;;;59.20;38.53;;;;;;;3.92;69.25;101487.14;1718922;81;21161;-88
2020/12/17 10:39:36;;;;;;;57.83;34.17;;;;;;;3.86;69.50;101493.27;1736129;81;21175;-88
2020/12/17 10:42:09;;;;;;;47.70;33.67;;;;;;;3.85;69.52;101492.05;1716652;81;21614;-89
2020/12/17 10:44:40;;;;;;;40.77;27.57;;;;;;;3.81;69.54;101494.56;1738818;81;21438;-91
2020/12/17 10:47:11;;;;;;;52.27;30.63;;;;;;;3.74;69.76;101501.25;1703125;79;21309;-88
2020/12/17 10:49:38;;;;;;;43.93;29.47;;;;;;;3.72;69.65;101497.89;1764542;79;21167;-87
2020/12/17 10:52:05;;;;;;;41.73;28.50;;;;;;;3.76;69.67;101500.66;1739235;81;21192;-91
2020/12/17 10:54:32;;;;;;;42.80;30.27;;;;;;;3.72;69.99;101507.95;1726830;81;21681;-90
2020/12/17 10:56:58;;;;;;;;;;;;;;;3.66;70.33;101507.94;1775241;79;21183;-91
2020/12/17 10:59:25;;;;;;;38.30;26.30;;;;;;;3.68;70.47;101502.07;1773428;80;20271;-91
2020/12/17 11:01:56;;;;;;;42.10;27.30;;;;;;;3.67;70.52;101500.86;1788275;79;21115;-87
2020/12/17 11:04:24;;;;;;;39.73;29.90;;;;;;;3.67;70.43;101506.13;1784670;79;21227;-89
2020/12/17 11:06:57;;;;;;;43.20;31.27;;;;;;;3.66;70.47;101500.03;1780507;79;21658;-89
2020/12/17 11:09:28;;;;;;;42.03;29.40;;;;;;;3.65;70.33;101501.45;1744325;79;21140;-88
2020/12/17 11:11:55;;;;;;;44.87;31.00;;;;;;;3.74;70.29;101503.41;1764056;81;21645;-86
2020/12/17 11:14:23;;;;;;;46.47;31.43;;;;;;;3.89;70.01;101501.41;1774583;79;21816;-89
2020/12/17 11:16:58;;;;;;;48.27;30.13;;;;;;;3.92;69.87;101506.92;1768321;79;21254;-88
2020/12/17 11:19:26;;;;;;;46.67;32.90;;;;;;;3.87;69.98;101504.64;1764716;79;21146;-87
2020/12/17 11:22:00;;;;;;;39.23;29.00;;;;;;;3.86;69.88;101508.23;1777439;79;21202;-87
2020/12/17 11:24:27;;;;;;;37.57;28.37;;;;;;;3.85;69.86;101511.84;1781282;80;21195;-90
2020/12/17 11:26:58;;;;;;;43.67;31.77;;;;;;;3.85;69.99;101509.20;1789599;80;21350;-87
2020/12/17 11:29:46;;;;;;;42.20;31.30;;;;;;;3.80;69.77;101504.73;1776172;80;21126;-91
2020/12/17 11:32:23;;;;;;;43.13;29.20;;;;;;;3.76;69.97;101508.09;1781308;78;21320;-90
2020/12/17 11:35:19;;;;;;;49.90;34.33;;;;;;;3.85;69.79;101508.72;1777759;78;21159;-91
2020/12/17 11:38:30;;;;;;;44.93;31.40;;;;;;;4.01;69.39;101517.64;1778201;80;21166;-93
2020/12/17 11:41:48;;;;;;;37.00;26.93;;;;;;;3.99;69.49;101514.25;1746229;80;21200;-93
2020/12/17 11:44:41;;;;;;;42.73;30.03;;;;;;;3.90;69.77;101513.17;1777631;79;21162;-94
2020/12/17 11:59:07;;;;;;;38.07;33.43;;;;;;;5.42;66.10;101499.50;1780871;78;23794;-94
2020/12/17 12:01:54;;;;;;;43.77;33.57;;;;;;;5.44;65.36;101512.11;1754122;79;21949;-91
2020/12/17 12:04:54;;;;;;;41.40;32.37;;;;;;;5.22;65.52;101513.88;1774966;78;21210;-91
2020/12/17 12:07:44;;;;;;;46.20;35.67;;;;;;;5.03;65.80;101514.52;1779021;79;26303;-94
2020/12/17 12:10:18;;;;;;;47.90;33.77;;;;;;;4.86;66.18;101527.76;1755172;80;21131;-91
2020/12/17 12:38:31;;;;;;;60.07;37.20;;;;;;;3.47;71.86;101532.67;1760497;80;22430;-89
2020/12/17 12:41:35;;;;;;;41.40;28.57;;;;;;;3.38;72.24;101532.86;1760556;79;23133;-91
2020/12/17 12:44:32;;;;;;;48.83;32.90;;;;;;;3.36;72.51;101531.30;1798560;78;24554;-91
2020/12/17 12:47:09;;;;;;;55.27;37.13;;;;;;;3.43;72.61;101540.45;1781442;79;21447;-90
2020/12/17 12:49:36;;;;;;;41.67;28.80;;;;;;;3.48;72.44;101534.34;1773114;80;21148;-90
2020/12/17 12:52:07;;;;;;;45.43;31.53;;;;;;;3.39;72.91;101533.24;1772071;80;21196;-94
2020/12/17 12:54:39;;;;;;;46.20;32.10;;;;;;;3.33;73.31;101544.20;1704697;82;21729;-93
2020/12/17 12:57:07;;;;;;;49.80;31.40;;;;;;;3.26;73.62;101537.73;1724898;82;21436;-88
2020/12/17 12:59:34;;;;;;;45.00;29.37;;;;;;;3.25;73.88;101537.34;1706594;83;21247;-90
2020/12/17 13:02:01;;;;;;;52.83;33.37;;;;;;;3.33;74.06;101536.30;1727802;83;21285;-91
2020/12/17 13:04:28;;;;;;;47.43;30.80;;;;;;;3.48;73.68;101539.61;1726511;82;21185;-90
2020/12/17 13:06:57;;;;;;;45.80;32.13;;;;;;;3.50;73.78;101537.70;1669312;83;21091;-91
2020/12/17 13:09:29;;;;;;;51.00;32.60;;;;;;;3.45;74.22;101535.91;1596427;86;21201;-90
2020/12/17 13:15:28;;;;;;;42.77;29.60;;;;;;;3.36;74.46;101541.84;1646770;82;21155;-94
2020/12/17 13:19:03;;;;;;;44.57;31.03;;;;;;;3.27;74.85;101544.66;1656795;84;21153;-93
2020/12/17 13:22:47;;;;;;;33.93;24.43;;;;;;;3.34;74.67;101547.70;1657399;84;21273;-94
2020/12/17 14:27:27;;;;;;;53.73;34.53;;;;;;;3.20;76.82;101558.77;1714829;82;21116;-94
2020/12/17 14:40:00;;;;;;;57.83;35.47;;;;;;;3.13;77.14;101565.43;1618138;86;21326;-96
2020/12/17 14:43:33;;;;;;;51.33;36.57;;;;;;;3.25;76.85;101559.75;1611225;85;21198;-95
2020/12/17 15:14:55;;;;;;;60.53;40.03;;;;;;;3.34;76.91;101552.98;1624560;86;21181;-95
2020/12/17 15:18:14;;;;;;;61.33;40.90;;;;;;;3.25;77.21;101565.84;1572561;88;21258;-95
2020/12/17 16:03:27;;;;;;;77.50;50.90;;;;;;;3.37;77.29;101567.23;1564936;88;21185;-95
2020/12/17 16:16:30;;;;;;;73.93;47.80;;;;;;;3.15;77.65;101573.23;1614409;85;21230;-95
2020/12/17 16:19:14;;;;;;;74.93;48.70;;;;;;;3.22;77.59;101573.13;1601236;88;21230;-94
2020/12/17 16:22:01;;;;;;;78.00;50.37;;;;;;;3.34;77.40;101578.02;1611756;87;21159;-95
2020/12/17 16:24:38;;;;;;;79.90;48.45;;;;;;;3.34;77.47;101574.89;1631869;87;21266;-91
2020/12/17 16:27:28;;;;;;;75.13;48.10;;;;;;;3.32;77.65;101575.48;1577022;88;21135;-93
2020/12/17 16:40:23;;;;;;;62.70;38.77;;;;;;;3.41;77.38;101577.91;1672618;81;21592;-96
2020/12/17 16:43:15;;;;;;;58.80;39.37;;;;;;;3.50;76.81;101574.16;1665607;84;21134;-94
2020/12/17 17:46:49;;;;;;;82.93;51.07;;;;;;;3.59;77.06;101600.79;1668979;81;21164;-95
2020/12/17 17:49:43;;;;;;;81.40;48.60;;;;;;;3.50;77.00;101607.56;1628580;84;21228;-91
2020/12/17 17:52:43;;;;;;;75.40;47.40;;;;;;;3.47;77.12;101607.80;1649026;85;21155;-96
2020/12/17 17:55:18;;;;;;;76.33;47.63;;;;;;;3.41;77.19;101609.55;1653740;85;21123;-96
2020/12/17 17:58:16;;;;;;;79.43;51.77;;;;;;;3.46;77.05;101610.06;1653128;83;21196;-95
2020/12/17 18:01:24;;;;;;;82.50;53.50;;;;;;;3.59;76.65;101608.70;1648865;83;21137;-95
2020/12/17 18:04:13;;;;;;;90.37;55.67;;;;;;;3.57;76.69;101607.97;1694125;83;21263;-94
2020/12/17 18:07:44;;;;;;;92.03;55.40;;;;;;;3.48;76.97;101611.66;1673440;83;21179;-91
2020/12/17 18:10:23;;;;;;;91.07;55.47;;;;;;;3.40;77.09;101607.39;1672624;83;21268;-96
2020/12/17 18:13:37;;;;;;;94.60;57.37;;;;;;;3.31;77.26;101605.41;1636162;84;21764;-96
2020/12/17 18:16:50;;;;;;;88.15;58.08;;;;;;;3.36;77.08;101611.69;1640627;85;21197;-93
2020/12/17 18:19:58;;;;;;;97.93;60.60;;;;;;;3.37;77.09;101619.94;1618457;87;21207;-92
2020/12/17 18:22:28;;;;;;;90.93;56.10;;;;;;;3.22;77.42;101621.42;1624769;86;21153;-94
2020/12/17 18:25:08;;;;;;;89.87;60.17;;;;;;;3.14;77.80;101620.27;1622501;86;21218;-93
2020/12/17 18:27:41;;;;;;;89.23;56.70;;;;;;;3.05;78.08;101620.44;1636280;85;21327;-91
2020/12/17 18:30:17;;;;;;;98.17;58.90;;;;;;;3.07;78.08;101617.22;1631328;87;21149;-91
2020/12/17 18:33:17;;;;;;;88.15;54.03;;;;;;;3.16;77.81;101614.42;1619410;87;21146;-93
2020/12/17 18:36:05;;;;;;;;;;;;;;;;;;;;;
2020/12/17 18:38:37;;;;;;;97.90;59.40;;;;;;;3.01;78.31;101613.70;1636218;85;21153;-93
2020/12/17 18:46:05;;;;;;;;;;;;;;;;;;;;;
2020/12/17 18:49:34;;;;;;;95.40;57.87;;;;;;;3.13;78.05;101614.17;1700011;82;21322;-96
2020/12/17 18:56:02;;;;;;;76.53;47.00;;;;;;;3.03;78.53;101612.66;1674667;83;21302;-95
2020/12/17 18:59:19;;;;;;;92.60;55.93;;;;;;;3.01;78.50;101620.28;1622829;84;21131;-94
2020/12/17 19:02:46;;;;;;;89.60;56.13;;;;;;;3.09;78.20;101619.30;1682834;83;21200;-96
2020/12/17 19:06:04;;;;;;;91.03;58.13;;;;;;;3.21;77.89;101609.19;1674617;83;21255;-93
2020/12/17 19:09:19;;;;;;;96.10;57.27;;;;;;;3.15;77.99;101614.06;1699662;82;21219;-95
2020/12/17 19:12:34;;;;;;;92.93;56.17;;;;;;;3.11;78.16;101609.48;1691798;82;21147;-87
2020/12/17 19:15:01;;;;;;;99.13;58.13;;;;;;;3.07;78.31;101607.99;1688812;82;21171;-88
2020/12/17 19:17:29;;;;;;;87.83;55.77;;;;;;;3.15;78.22;101608.80;1712990;82;21183;-85
2020/12/17 19:19:57;;;;;;;90.00;55.63;;;;;;;3.29;77.67;101602.05;1710881;82;21231;-87
2020/12/17 19:22:24;;;;;;;86.73;56.07;;;;;;;3.28;77.39;101601.22;1716178;82;21226;-88
2020/12/17 19:24:52;;;;;;;87.10;54.43;;;;;;;3.23;77.59;101602.02;1702643;82;21703;-86
2020/12/17 19:27:20;;;;;;;87.57;55.27;;;;;;;3.23;77.75;101605.13;1703960;82;21895;-89
2020/12/17 19:29:55;;;;;;;85.40;54.73;;;;;;;3.20;77.88;101604.89;1699989;82;21182;-88
2020/12/17 19:32:43;;;;;;;84.63;53.30;;;;;;;3.25;77.68;101604.55;1709752;82;21320;-88
2020/12/17 19:35:41;;;;;;;87.47;54.47;;;;;;;3.42;77.16;101600.21;1775537;79;23611;-86
2020/12/17 19:38:10;;;;;;;82.60;51.70;;;;;;;3.29;77.12;101602.88;1725767;81;21166;-92
2020/12/17 19:41:04;;;;;;;92.10;56.50;;;;;;;3.21;77.38;101605.23;1723673;81;21344;-87
2020/12/17 19:43:31;;;;;;;87.90;53.57;;;;;;;3.13;77.56;101614.17;1734704;81;21266;-89
2020/12/17 19:45:58;;;;;;;88.60;53.63;;;;;;;3.05;77.67;101614.72;1734487;81;21152;-89
2020/12/17 19:48:32;;;;;;;80.93;48.20;;;;;;;3.00;77.72;101619.45;1731502;80;21161;-89
2020/12/17 19:51:01;;;;;;;81.40;49.53;;;;;;;3.04;77.69;101618.77;1717815;79;21269;-93
2020/12/17 19:53:29;;;;;;;84.83;53.37;;;;;;;2.97;77.83;101627.56;1728243;80;21285;-92
2020/12/17 19:55:58;;;;;;;80.20;48.40;;;;;;;2.86;78.14;101619.11;1709013;81;21636;-90
2020/12/17 19:58:27;;;;;;;74.33;46.20;;;;;;;2.56;78.32;101586.98;1729887;81;21577;-91
2020/12/17 20:00:57;;;;;;;74.20;47.70;;;;;;;2.81;78.37;101622.53;1694516;80;21264;-94
2020/12/17 20:03:48;;;;;;;78.57;50.12;;;;;;;2.89;78.17;101625.95;1699457;79;21191;-93